<?xml version="1.0" encoding="UTF-8" standalone="no" ?>
<gpx xmlns="http://www.topografix.com/GPX/1/1" xmlns:xsi="http://www.w3.org/2001/XMLSchema-instance" xsi:schemaLocation="http://www.topografix.com/GPX/1/1 http://www.topografix.com/GPX/1/1/gpx.xsd" version="1.1" creator="VisuGPX - https://www.visugpx.com">
  <metadata>
    <name>PdB-Locmiquélic</name>
  </metadata>
  <trk>
    <name><![CDATA[Locmiquélic]]></name>
    <extensions>
      <line xmlns="http://www.topografix.com/GPX/gpx_style/0/2">
        <color>0000FF</color>
        <width>4</width>
      </line>
    </extensions>
    <trkseg>
      <trkpt lat="47.73928" lon="-3.31105">
        <ele>54</ele>
        <time>2021-09-24T08:51:02.806Z</time>
      </trkpt>
      <trkpt lat="47.73928" lon="-3.31105">
        <ele>54</ele>
        <time>2021-09-24T08:51:03.055Z</time>
      </trkpt>
      <trkpt lat="47.73928" lon="-3.31104">
        <ele>54</ele>
        <time>2021-09-24T08:51:09.070Z</time>
      </trkpt>
      <trkpt lat="47.73928" lon="-3.31104">
        <ele>54</ele>
        <time>2021-09-24T08:52:01.039Z</time>
      </trkpt>
      <trkpt lat="47.73931" lon="-3.311">
        <ele>54</ele>
        <time>2021-09-24T08:52:02.071Z</time>
      </trkpt>
      <trkpt lat="47.7394" lon="-3.31102">
        <ele>54</ele>
        <time>2021-09-24T08:52:16.071Z</time>
      </trkpt>
      <trkpt lat="47.73952" lon="-3.31102">
        <ele>53</ele>
        <time>2021-09-24T08:52:28.122Z</time>
      </trkpt>
      <trkpt lat="47.73961" lon="-3.31099">
        <ele>53</ele>
        <time>2021-09-24T08:52:32.111Z</time>
      </trkpt>
      <trkpt lat="47.7397" lon="-3.31096">
        <ele>53</ele>
        <time>2021-09-24T08:52:35.130Z</time>
      </trkpt>
      <trkpt lat="47.73979" lon="-3.31093">
        <ele>53</ele>
        <time>2021-09-24T08:52:39.120Z</time>
      </trkpt>
      <trkpt lat="47.73988" lon="-3.31093">
        <ele>53</ele>
        <time>2021-09-24T08:52:49.109Z</time>
      </trkpt>
      <trkpt lat="47.73999" lon="-3.31092">
        <ele>53</ele>
        <time>2021-09-24T08:52:54.136Z</time>
      </trkpt>
      <trkpt lat="47.74008" lon="-3.31093">
        <ele>53</ele>
        <time>2021-09-24T08:53:00.134Z</time>
      </trkpt>
      <trkpt lat="47.74017" lon="-3.31095">
        <ele>54</ele>
        <time>2021-09-24T08:53:06.150Z</time>
      </trkpt>
      <trkpt lat="47.74027" lon="-3.31095">
        <ele>54</ele>
        <time>2021-09-24T08:53:12.136Z</time>
      </trkpt>
      <trkpt lat="47.74034" lon="-3.31103">
        <ele>55</ele>
        <time>2021-09-24T08:53:20.128Z</time>
      </trkpt>
      <trkpt lat="47.74043" lon="-3.3111">
        <ele>55</ele>
        <time>2021-09-24T08:53:30.127Z</time>
      </trkpt>
      <trkpt lat="47.74053" lon="-3.31114">
        <ele>56</ele>
        <time>2021-09-24T08:53:40.136Z</time>
      </trkpt>
      <trkpt lat="47.74062" lon="-3.31116">
        <ele>56</ele>
        <time>2021-09-24T08:53:46.148Z</time>
      </trkpt>
      <trkpt lat="47.74072" lon="-3.31116">
        <ele>57</ele>
        <time>2021-09-24T08:53:53.124Z</time>
      </trkpt>
      <trkpt lat="47.74081" lon="-3.31119">
        <ele>57</ele>
        <time>2021-09-24T08:54:01.107Z</time>
      </trkpt>
      <trkpt lat="47.74091" lon="-3.3112">
        <ele>57</ele>
        <time>2021-09-24T08:54:08.150Z</time>
      </trkpt>
      <trkpt lat="47.74101" lon="-3.3112">
        <ele>57</ele>
        <time>2021-09-24T08:54:19.115Z</time>
      </trkpt>
      <trkpt lat="47.74111" lon="-3.31119">
        <ele>57</ele>
        <time>2021-09-24T08:54:27.142Z</time>
      </trkpt>
      <trkpt lat="47.7412" lon="-3.31115">
        <ele>57</ele>
        <time>2021-09-24T08:54:33.125Z</time>
      </trkpt>
      <trkpt lat="47.74128" lon="-3.31111">
        <ele>57</ele>
        <time>2021-09-24T08:54:40.138Z</time>
      </trkpt>
      <trkpt lat="47.74137" lon="-3.31112">
        <ele>57</ele>
        <time>2021-09-24T08:54:50.122Z</time>
      </trkpt>
      <trkpt lat="47.74148" lon="-3.31111">
        <ele>57</ele>
        <time>2021-09-24T08:54:58.117Z</time>
      </trkpt>
      <trkpt lat="47.74158" lon="-3.31111">
        <ele>57</ele>
        <time>2021-09-24T08:55:04.128Z</time>
      </trkpt>
      <trkpt lat="47.74166" lon="-3.31119">
        <ele>58</ele>
        <time>2021-09-24T08:55:15.131Z</time>
      </trkpt>
      <trkpt lat="47.74174" lon="-3.31125">
        <ele>59</ele>
        <time>2021-09-24T08:55:24.127Z</time>
      </trkpt>
      <trkpt lat="47.74181" lon="-3.31133">
        <ele>60</ele>
        <time>2021-09-24T08:55:33.138Z</time>
      </trkpt>
      <trkpt lat="47.74182" lon="-3.31134">
        <ele>60</ele>
        <time>2021-09-24T08:55:48.116Z</time>
      </trkpt>
      <trkpt lat="47.74182" lon="-3.31134">
        <ele>60</ele>
        <time>2021-09-24T08:56:10.129Z</time>
      </trkpt>
      <trkpt lat="47.74186" lon="-3.31132">
        <ele>60</ele>
        <time>2021-09-24T08:56:11.106Z</time>
      </trkpt>
      <trkpt lat="47.74195" lon="-3.31134">
        <ele>60</ele>
        <time>2021-09-24T08:56:25.115Z</time>
      </trkpt>
      <trkpt lat="47.74203" lon="-3.31142">
        <ele>60</ele>
        <time>2021-09-24T08:56:31.137Z</time>
      </trkpt>
      <trkpt lat="47.7421" lon="-3.31152">
        <ele>60</ele>
        <time>2021-09-24T08:56:37.144Z</time>
      </trkpt>
      <trkpt lat="47.74216" lon="-3.31165">
        <ele>60</ele>
        <time>2021-09-24T08:56:46.126Z</time>
      </trkpt>
      <trkpt lat="47.7422" lon="-3.31179">
        <ele>61</ele>
        <time>2021-09-24T08:56:52.125Z</time>
      </trkpt>
      <trkpt lat="47.74225" lon="-3.31191">
        <ele>61</ele>
        <time>2021-09-24T08:57:00.098Z</time>
      </trkpt>
      <trkpt lat="47.74233" lon="-3.312">
        <ele>62</ele>
        <time>2021-09-24T08:57:09.116Z</time>
      </trkpt>
      <trkpt lat="47.74241" lon="-3.31208">
        <ele>63</ele>
        <time>2021-09-24T08:57:18.131Z</time>
      </trkpt>
      <trkpt lat="47.74246" lon="-3.31219">
        <ele>63</ele>
        <time>2021-09-24T08:57:26.101Z</time>
      </trkpt>
      <trkpt lat="47.74246" lon="-3.31219">
        <ele>63</ele>
        <time>2021-09-24T08:57:43.099Z</time>
      </trkpt>
      <trkpt lat="47.74246" lon="-3.31219">
        <ele>63</ele>
        <time>2021-09-24T08:57:50.099Z</time>
      </trkpt>
      <trkpt lat="47.7425" lon="-3.31222">
        <ele>63</ele>
        <time>2021-09-24T08:57:51.116Z</time>
      </trkpt>
      <trkpt lat="47.74257" lon="-3.3123">
        <ele>62</ele>
        <time>2021-09-24T08:57:57.121Z</time>
      </trkpt>
      <trkpt lat="47.74266" lon="-3.31237">
        <ele>62</ele>
        <time>2021-09-24T08:58:06.105Z</time>
      </trkpt>
      <trkpt lat="47.74273" lon="-3.31246">
        <ele>61</ele>
        <time>2021-09-24T08:58:12.094Z</time>
      </trkpt>
      <trkpt lat="47.74278" lon="-3.31258">
        <ele>61</ele>
        <time>2021-09-24T08:58:20.121Z</time>
      </trkpt>
      <trkpt lat="47.74282" lon="-3.31272">
        <ele>61</ele>
        <time>2021-09-24T08:58:28.105Z</time>
      </trkpt>
      <trkpt lat="47.74285" lon="-3.31287">
        <ele>60</ele>
        <time>2021-09-24T08:58:52.107Z</time>
      </trkpt>
      <trkpt lat="47.74286" lon="-3.31302">
        <ele>60</ele>
        <time>2021-09-24T08:58:59.099Z</time>
      </trkpt>
      <trkpt lat="47.74289" lon="-3.31316">
        <ele>59</ele>
        <time>2021-09-24T08:59:09.108Z</time>
      </trkpt>
      <trkpt lat="47.74289" lon="-3.31331">
        <ele>59</ele>
        <time>2021-09-24T08:59:17.109Z</time>
      </trkpt>
      <trkpt lat="47.74289" lon="-3.31338">
        <ele>59</ele>
        <time>2021-09-24T08:59:27.123Z</time>
      </trkpt>
      <trkpt lat="47.74289" lon="-3.31338">
        <ele>59</ele>
        <time>2021-09-24T08:59:41.114Z</time>
      </trkpt>
      <trkpt lat="47.74288" lon="-3.31344">
        <ele>59</ele>
        <time>2021-09-24T08:59:42.124Z</time>
      </trkpt>
      <trkpt lat="47.74291" lon="-3.31356">
        <ele>59</ele>
        <time>2021-09-24T08:59:48.087Z</time>
      </trkpt>
      <trkpt lat="47.74294" lon="-3.31369">
        <ele>58</ele>
        <time>2021-09-24T09:00:03.119Z</time>
      </trkpt>
      <trkpt lat="47.74292" lon="-3.31384">
        <ele>57</ele>
        <time>2021-09-24T09:00:10.107Z</time>
      </trkpt>
      <trkpt lat="47.7429" lon="-3.31399">
        <ele>57</ele>
        <time>2021-09-24T09:00:19.117Z</time>
      </trkpt>
      <trkpt lat="47.74288" lon="-3.31413">
        <ele>56</ele>
        <time>2021-09-24T09:00:26.108Z</time>
      </trkpt>
      <trkpt lat="47.74288" lon="-3.31429">
        <ele>56</ele>
        <time>2021-09-24T09:00:34.124Z</time>
      </trkpt>
      <trkpt lat="47.74289" lon="-3.31443">
        <ele>56</ele>
        <time>2021-09-24T09:00:42.122Z</time>
      </trkpt>
      <trkpt lat="47.74292" lon="-3.31457">
        <ele>56</ele>
        <time>2021-09-24T09:00:52.102Z</time>
      </trkpt>
      <trkpt lat="47.74295" lon="-3.31469">
        <ele>57</ele>
        <time>2021-09-24T09:01:09.128Z</time>
      </trkpt>
      <trkpt lat="47.74298" lon="-3.31482">
        <ele>57</ele>
        <time>2021-09-24T09:01:18.112Z</time>
      </trkpt>
      <trkpt lat="47.74302" lon="-3.31497">
        <ele>57</ele>
        <time>2021-09-24T09:01:25.122Z</time>
      </trkpt>
      <trkpt lat="47.74303" lon="-3.31511">
        <ele>58</ele>
        <time>2021-09-24T09:01:33.121Z</time>
      </trkpt>
      <trkpt lat="47.74303" lon="-3.31525">
        <ele>58</ele>
        <time>2021-09-24T09:01:43.121Z</time>
      </trkpt>
      <trkpt lat="47.74302" lon="-3.31533">
        <ele>58</ele>
        <time>2021-09-24T09:02:06.115Z</time>
      </trkpt>
      <trkpt lat="47.74302" lon="-3.31533">
        <ele>58</ele>
        <time>2021-09-24T09:02:22.130Z</time>
      </trkpt>
      <trkpt lat="47.74305" lon="-3.31538">
        <ele>57</ele>
        <time>2021-09-24T09:02:23.120Z</time>
      </trkpt>
      <trkpt lat="47.74315" lon="-3.31543">
        <ele>57</ele>
        <time>2021-09-24T09:02:35.074Z</time>
      </trkpt>
      <trkpt lat="47.74322" lon="-3.31552">
        <ele>58</ele>
        <time>2021-09-24T09:02:42.150Z</time>
      </trkpt>
      <trkpt lat="47.74329" lon="-3.31561">
        <ele>58</ele>
        <time>2021-09-24T09:02:50.126Z</time>
      </trkpt>
      <trkpt lat="47.74338" lon="-3.31568">
        <ele>59</ele>
        <time>2021-09-24T09:02:58.140Z</time>
      </trkpt>
      <trkpt lat="47.74347" lon="-3.31571">
        <ele>59</ele>
        <time>2021-09-24T09:03:06.124Z</time>
      </trkpt>
      <trkpt lat="47.74357" lon="-3.3157">
        <ele>60</ele>
        <time>2021-09-24T09:03:16.087Z</time>
      </trkpt>
      <trkpt lat="47.74366" lon="-3.31572">
        <ele>60</ele>
        <time>2021-09-24T09:03:25.138Z</time>
      </trkpt>
      <trkpt lat="47.74367" lon="-3.31573">
        <ele>60</ele>
        <time>2021-09-24T09:03:31.127Z</time>
      </trkpt>
      <trkpt lat="47.74367" lon="-3.31573">
        <ele>60</ele>
        <time>2021-09-24T09:03:47.119Z</time>
      </trkpt>
      <trkpt lat="47.7437" lon="-3.3157">
        <ele>59</ele>
        <time>2021-09-24T09:03:48.109Z</time>
      </trkpt>
      <trkpt lat="47.74377" lon="-3.3156">
        <ele>59</ele>
        <time>2021-09-24T09:03:54.122Z</time>
      </trkpt>
      <trkpt lat="47.74385" lon="-3.31552">
        <ele>59</ele>
        <time>2021-09-24T09:03:59.131Z</time>
      </trkpt>
      <trkpt lat="47.74395" lon="-3.3155">
        <ele>59</ele>
        <time>2021-09-24T09:04:06.122Z</time>
      </trkpt>
      <trkpt lat="47.74402" lon="-3.31542">
        <ele>58</ele>
        <time>2021-09-24T09:04:17.113Z</time>
      </trkpt>
      <trkpt lat="47.74412" lon="-3.31542">
        <ele>58</ele>
        <time>2021-09-24T09:04:41.122Z</time>
      </trkpt>
      <trkpt lat="47.7442" lon="-3.31535">
        <ele>58</ele>
        <time>2021-09-24T09:04:53.104Z</time>
      </trkpt>
      <trkpt lat="47.74429" lon="-3.31527">
        <ele>58</ele>
        <time>2021-09-24T09:05:00.109Z</time>
      </trkpt>
      <trkpt lat="47.74438" lon="-3.31524">
        <ele>59</ele>
        <time>2021-09-24T09:05:08.126Z</time>
      </trkpt>
      <trkpt lat="47.74447" lon="-3.3152">
        <ele>59</ele>
        <time>2021-09-24T09:05:24.100Z</time>
      </trkpt>
      <trkpt lat="47.74455" lon="-3.31513">
        <ele>60</ele>
        <time>2021-09-24T09:05:31.124Z</time>
      </trkpt>
      <trkpt lat="47.74462" lon="-3.31504">
        <ele>60</ele>
        <time>2021-09-24T09:05:42.138Z</time>
      </trkpt>
      <trkpt lat="47.74469" lon="-3.31495">
        <ele>60</ele>
        <time>2021-09-24T09:05:52.132Z</time>
      </trkpt>
      <trkpt lat="47.74478" lon="-3.3149">
        <ele>59</ele>
        <time>2021-09-24T09:06:02.144Z</time>
      </trkpt>
      <trkpt lat="47.74487" lon="-3.31486">
        <ele>59</ele>
        <time>2021-09-24T09:06:09.110Z</time>
      </trkpt>
      <trkpt lat="47.74496" lon="-3.3149">
        <ele>59</ele>
        <time>2021-09-24T09:06:17.125Z</time>
      </trkpt>
      <trkpt lat="47.74504" lon="-3.31497">
        <ele>59</ele>
        <time>2021-09-24T09:06:27.126Z</time>
      </trkpt>
      <trkpt lat="47.74513" lon="-3.315">
        <ele>59</ele>
        <time>2021-09-24T09:06:35.135Z</time>
      </trkpt>
      <trkpt lat="47.74522" lon="-3.31501">
        <ele>59</ele>
        <time>2021-09-24T09:06:42.121Z</time>
      </trkpt>
      <trkpt lat="47.74532" lon="-3.315">
        <ele>59</ele>
        <time>2021-09-24T09:06:51.118Z</time>
      </trkpt>
      <trkpt lat="47.74541" lon="-3.31497">
        <ele>59</ele>
        <time>2021-09-24T09:07:00.130Z</time>
      </trkpt>
      <trkpt lat="47.74551" lon="-3.31497">
        <ele>59</ele>
        <time>2021-09-24T09:07:16.118Z</time>
      </trkpt>
      <trkpt lat="47.74556" lon="-3.31495">
        <ele>59</ele>
        <time>2021-09-24T09:07:25.117Z</time>
      </trkpt>
      <trkpt lat="47.74556" lon="-3.31495">
        <ele>59</ele>
        <time>2021-09-24T09:09:15.059Z</time>
      </trkpt>
      <trkpt lat="47.7456" lon="-3.31495">
        <ele>60</ele>
        <time>2021-09-24T09:09:16.109Z</time>
      </trkpt>
      <trkpt lat="47.74568" lon="-3.31492">
        <ele>60</ele>
        <time>2021-09-24T09:09:30.147Z</time>
      </trkpt>
      <trkpt lat="47.74576" lon="-3.31481">
        <ele>59</ele>
        <time>2021-09-24T09:09:42.134Z</time>
      </trkpt>
      <trkpt lat="47.74584" lon="-3.31472">
        <ele>59</ele>
        <time>2021-09-24T09:09:49.141Z</time>
      </trkpt>
      <trkpt lat="47.74592" lon="-3.31465">
        <ele>58</ele>
        <time>2021-09-24T09:09:55.149Z</time>
      </trkpt>
      <trkpt lat="47.74598" lon="-3.31455">
        <ele>58</ele>
        <time>2021-09-24T09:10:05.138Z</time>
      </trkpt>
      <trkpt lat="47.74604" lon="-3.31444">
        <ele>59</ele>
        <time>2021-09-24T09:10:13.153Z</time>
      </trkpt>
      <trkpt lat="47.7461" lon="-3.31434">
        <ele>59</ele>
        <time>2021-09-24T09:10:19.136Z</time>
      </trkpt>
      <trkpt lat="47.74616" lon="-3.31422">
        <ele>60</ele>
        <time>2021-09-24T09:10:30.133Z</time>
      </trkpt>
      <trkpt lat="47.74623" lon="-3.31412">
        <ele>60</ele>
        <time>2021-09-24T09:10:37.139Z</time>
      </trkpt>
      <trkpt lat="47.74629" lon="-3.314">
        <ele>60</ele>
        <time>2021-09-24T09:10:44.146Z</time>
      </trkpt>
      <trkpt lat="47.74631" lon="-3.31387">
        <ele>60</ele>
        <time>2021-09-24T09:10:51.137Z</time>
      </trkpt>
      <trkpt lat="47.74629" lon="-3.31374">
        <ele>60</ele>
        <time>2021-09-24T09:10:57.131Z</time>
      </trkpt>
      <trkpt lat="47.74625" lon="-3.31362">
        <ele>60</ele>
        <time>2021-09-24T09:11:03.112Z</time>
      </trkpt>
      <trkpt lat="47.74619" lon="-3.3135">
        <ele>60</ele>
        <time>2021-09-24T09:11:09.146Z</time>
      </trkpt>
      <trkpt lat="47.74611" lon="-3.31342">
        <ele>60</ele>
        <time>2021-09-24T09:11:18.127Z</time>
      </trkpt>
      <trkpt lat="47.7462" lon="-3.31339">
        <ele>61</ele>
        <time>2021-09-24T09:11:39.133Z</time>
      </trkpt>
      <trkpt lat="47.74628" lon="-3.31349">
        <ele>62</ele>
        <time>2021-09-24T09:11:51.151Z</time>
      </trkpt>
      <trkpt lat="47.74636" lon="-3.31356">
        <ele>62</ele>
        <time>2021-09-24T09:11:59.125Z</time>
      </trkpt>
      <trkpt lat="47.74645" lon="-3.31362">
        <ele>62</ele>
        <time>2021-09-24T09:12:10.125Z</time>
      </trkpt>
      <trkpt lat="47.74653" lon="-3.31354">
        <ele>62</ele>
        <time>2021-09-24T09:12:17.132Z</time>
      </trkpt>
      <trkpt lat="47.74658" lon="-3.31342">
        <ele>61</ele>
        <time>2021-09-24T09:12:28.111Z</time>
      </trkpt>
      <trkpt lat="47.74661" lon="-3.31328">
        <ele>60</ele>
        <time>2021-09-24T09:12:36.138Z</time>
      </trkpt>
      <trkpt lat="47.74664" lon="-3.31314">
        <ele>59</ele>
        <time>2021-09-24T09:12:46.141Z</time>
      </trkpt>
      <trkpt lat="47.74664" lon="-3.313">
        <ele>57</ele>
        <time>2021-09-24T09:12:59.120Z</time>
      </trkpt>
      <trkpt lat="47.74665" lon="-3.31286">
        <ele>55</ele>
        <time>2021-09-24T09:13:13.135Z</time>
      </trkpt>
      <trkpt lat="47.74657" lon="-3.3128">
        <ele>54</ele>
        <time>2021-09-24T09:13:22.136Z</time>
      </trkpt>
      <trkpt lat="47.7465" lon="-3.3127">
        <ele>53</ele>
        <time>2021-09-24T09:13:33.147Z</time>
      </trkpt>
      <trkpt lat="47.74649" lon="-3.31257">
        <ele>53</ele>
        <time>2021-09-24T09:13:40.136Z</time>
      </trkpt>
      <trkpt lat="47.74648" lon="-3.31244">
        <ele>54</ele>
        <time>2021-09-24T09:13:49.134Z</time>
      </trkpt>
      <trkpt lat="47.7465" lon="-3.31229">
        <ele>54</ele>
        <time>2021-09-24T09:14:03.115Z</time>
      </trkpt>
      <trkpt lat="47.74653" lon="-3.31216">
        <ele>54</ele>
        <time>2021-09-24T09:14:08.137Z</time>
      </trkpt>
      <trkpt lat="47.74656" lon="-3.31203">
        <ele>55</ele>
        <time>2021-09-24T09:14:17.112Z</time>
      </trkpt>
      <trkpt lat="47.74658" lon="-3.31198">
        <ele>55</ele>
        <time>2021-09-24T09:14:28.111Z</time>
      </trkpt>
      <trkpt lat="47.74658" lon="-3.31198">
        <ele>55</ele>
        <time>2021-09-24T09:15:12.129Z</time>
      </trkpt>
      <trkpt lat="47.74655" lon="-3.31196">
        <ele>55</ele>
        <time>2021-09-24T09:15:13.135Z</time>
      </trkpt>
      <trkpt lat="47.74653" lon="-3.31182">
        <ele>55</ele>
        <time>2021-09-24T09:15:21.139Z</time>
      </trkpt>
      <trkpt lat="47.74653" lon="-3.31168">
        <ele>55</ele>
        <time>2021-09-24T09:15:30.113Z</time>
      </trkpt>
      <trkpt lat="47.74655" lon="-3.31153">
        <ele>55</ele>
        <time>2021-09-24T09:15:39.113Z</time>
      </trkpt>
      <trkpt lat="47.7466" lon="-3.31141">
        <ele>56</ele>
        <time>2021-09-24T09:15:48.151Z</time>
      </trkpt>
      <trkpt lat="47.74654" lon="-3.31129">
        <ele>60</ele>
        <time>2021-09-24T09:16:16.138Z</time>
      </trkpt>
      <trkpt lat="47.74646" lon="-3.31128">
        <ele>61</ele>
        <time>2021-09-24T09:16:34.083Z</time>
      </trkpt>
      <trkpt lat="47.74636" lon="-3.31124">
        <ele>62</ele>
        <time>2021-09-24T09:16:44.075Z</time>
      </trkpt>
      <trkpt lat="47.74626" lon="-3.31116">
        <ele>62</ele>
        <time>2021-09-24T09:16:49.132Z</time>
      </trkpt>
      <trkpt lat="47.7462" lon="-3.31105">
        <ele>62</ele>
        <time>2021-09-24T09:16:54.133Z</time>
      </trkpt>
      <trkpt lat="47.74617" lon="-3.31092">
        <ele>63</ele>
        <time>2021-09-24T09:17:06.139Z</time>
      </trkpt>
      <trkpt lat="47.74616" lon="-3.31077">
        <ele>64</ele>
        <time>2021-09-24T09:17:14.107Z</time>
      </trkpt>
      <trkpt lat="47.74617" lon="-3.31058">
        <ele>64</ele>
        <time>2021-09-24T09:17:20.149Z</time>
      </trkpt>
      <trkpt lat="47.74617" lon="-3.31043">
        <ele>64</ele>
        <time>2021-09-24T09:17:25.140Z</time>
      </trkpt>
      <trkpt lat="47.74617" lon="-3.31029">
        <ele>64</ele>
        <time>2021-09-24T09:17:39.138Z</time>
      </trkpt>
      <trkpt lat="47.7462" lon="-3.31016">
        <ele>64</ele>
        <time>2021-09-24T09:17:46.140Z</time>
      </trkpt>
      <trkpt lat="47.74622" lon="-3.31001">
        <ele>65</ele>
        <time>2021-09-24T09:18:00.138Z</time>
      </trkpt>
      <trkpt lat="47.74621" lon="-3.30987">
        <ele>65</ele>
        <time>2021-09-24T09:18:06.130Z</time>
      </trkpt>
      <trkpt lat="47.7462" lon="-3.30973">
        <ele>66</ele>
        <time>2021-09-24T09:18:18.133Z</time>
      </trkpt>
      <trkpt lat="47.74621" lon="-3.30959">
        <ele>66</ele>
        <time>2021-09-24T09:18:31.130Z</time>
      </trkpt>
      <trkpt lat="47.74619" lon="-3.30946">
        <ele>66</ele>
        <time>2021-09-24T09:18:39.123Z</time>
      </trkpt>
      <trkpt lat="47.74617" lon="-3.30932">
        <ele>66</ele>
        <time>2021-09-24T09:18:43.128Z</time>
      </trkpt>
      <trkpt lat="47.74618" lon="-3.30917">
        <ele>66</ele>
        <time>2021-09-24T09:18:49.156Z</time>
      </trkpt>
      <trkpt lat="47.74621" lon="-3.30904">
        <ele>66</ele>
        <time>2021-09-24T09:18:56.134Z</time>
      </trkpt>
      <trkpt lat="47.7462" lon="-3.30889">
        <ele>65</ele>
        <time>2021-09-24T09:19:07.134Z</time>
      </trkpt>
      <trkpt lat="47.7462" lon="-3.30875">
        <ele>65</ele>
        <time>2021-09-24T09:19:13.131Z</time>
      </trkpt>
      <trkpt lat="47.74622" lon="-3.3086">
        <ele>64</ele>
        <time>2021-09-24T09:19:21.128Z</time>
      </trkpt>
      <trkpt lat="47.74622" lon="-3.30846">
        <ele>63</ele>
        <time>2021-09-24T09:19:30.124Z</time>
      </trkpt>
      <trkpt lat="47.74621" lon="-3.30832">
        <ele>62</ele>
        <time>2021-09-24T09:19:38.129Z</time>
      </trkpt>
      <trkpt lat="47.74618" lon="-3.30817">
        <ele>61</ele>
        <time>2021-09-24T09:19:50.136Z</time>
      </trkpt>
      <trkpt lat="47.7462" lon="-3.30802">
        <ele>60</ele>
        <time>2021-09-24T09:19:59.127Z</time>
      </trkpt>
      <trkpt lat="47.74621" lon="-3.30788">
        <ele>60</ele>
        <time>2021-09-24T09:20:05.121Z</time>
      </trkpt>
      <trkpt lat="47.7462" lon="-3.30774">
        <ele>60</ele>
        <time>2021-09-24T09:20:15.105Z</time>
      </trkpt>
      <trkpt lat="47.7462" lon="-3.3076">
        <ele>60</ele>
        <time>2021-09-24T09:20:23.129Z</time>
      </trkpt>
      <trkpt lat="47.7462" lon="-3.30745">
        <ele>60</ele>
        <time>2021-09-24T09:20:31.136Z</time>
      </trkpt>
      <trkpt lat="47.74618" lon="-3.30731">
        <ele>60</ele>
        <time>2021-09-24T09:20:39.125Z</time>
      </trkpt>
      <trkpt lat="47.74617" lon="-3.30718">
        <ele>60</ele>
        <time>2021-09-24T09:20:47.133Z</time>
      </trkpt>
      <trkpt lat="47.74623" lon="-3.30707">
        <ele>61</ele>
        <time>2021-09-24T09:20:59.126Z</time>
      </trkpt>
      <trkpt lat="47.74632" lon="-3.30706">
        <ele>62</ele>
        <time>2021-09-24T09:21:06.124Z</time>
      </trkpt>
      <trkpt lat="47.74641" lon="-3.30704">
        <ele>63</ele>
        <time>2021-09-24T09:21:18.139Z</time>
      </trkpt>
      <trkpt lat="47.74652" lon="-3.30703">
        <ele>63</ele>
        <time>2021-09-24T09:21:27.115Z</time>
      </trkpt>
      <trkpt lat="47.74663" lon="-3.30704">
        <ele>64</ele>
        <time>2021-09-24T09:21:33.104Z</time>
      </trkpt>
      <trkpt lat="47.74672" lon="-3.30702">
        <ele>64</ele>
        <time>2021-09-24T09:21:40.116Z</time>
      </trkpt>
      <trkpt lat="47.74681" lon="-3.30702">
        <ele>63</ele>
        <time>2021-09-24T09:21:49.148Z</time>
      </trkpt>
      <trkpt lat="47.74691" lon="-3.307">
        <ele>63</ele>
        <time>2021-09-24T09:21:56.122Z</time>
      </trkpt>
      <trkpt lat="47.74701" lon="-3.30699">
        <ele>63</ele>
        <time>2021-09-24T09:22:05.151Z</time>
      </trkpt>
      <trkpt lat="47.74711" lon="-3.30699">
        <ele>63</ele>
        <time>2021-09-24T09:22:12.129Z</time>
      </trkpt>
      <trkpt lat="47.7472" lon="-3.30696">
        <ele>62</ele>
        <time>2021-09-24T09:22:24.142Z</time>
      </trkpt>
      <trkpt lat="47.74729" lon="-3.30695">
        <ele>62</ele>
        <time>2021-09-24T09:22:31.143Z</time>
      </trkpt>
      <trkpt lat="47.74734" lon="-3.30682">
        <ele>62</ele>
        <time>2021-09-24T09:22:49.136Z</time>
      </trkpt>
      <trkpt lat="47.74737" lon="-3.30667">
        <ele>62</ele>
        <time>2021-09-24T09:22:53.121Z</time>
      </trkpt>
      <trkpt lat="47.74737" lon="-3.30653">
        <ele>61</ele>
        <time>2021-09-24T09:22:58.148Z</time>
      </trkpt>
      <trkpt lat="47.74738" lon="-3.30639">
        <ele>61</ele>
        <time>2021-09-24T09:23:12.154Z</time>
      </trkpt>
      <trkpt lat="47.74739" lon="-3.30625">
        <ele>61</ele>
        <time>2021-09-24T09:23:19.128Z</time>
      </trkpt>
      <trkpt lat="47.74738" lon="-3.30618">
        <ele>62</ele>
        <time>2021-09-24T09:23:25.141Z</time>
      </trkpt>
      <trkpt lat="47.74738" lon="-3.30618">
        <ele>62</ele>
        <time>2021-09-24T09:27:23.079Z</time>
      </trkpt>
      <trkpt lat="47.74741" lon="-3.30606">
        <ele>68</ele>
        <time>2021-09-24T09:27:24.078Z</time>
      </trkpt>
      <trkpt lat="47.74741" lon="-3.30592">
        <ele>68</ele>
        <time>2021-09-24T09:27:36.125Z</time>
      </trkpt>
      <trkpt lat="47.74742" lon="-3.30578">
        <ele>67</ele>
        <time>2021-09-24T09:27:44.141Z</time>
      </trkpt>
      <trkpt lat="47.74742" lon="-3.30564">
        <ele>67</ele>
        <time>2021-09-24T09:27:50.145Z</time>
      </trkpt>
      <trkpt lat="47.7475" lon="-3.30556">
        <ele>66</ele>
        <time>2021-09-24T09:28:05.134Z</time>
      </trkpt>
      <trkpt lat="47.74759" lon="-3.30559">
        <ele>65</ele>
        <time>2021-09-24T09:28:21.134Z</time>
      </trkpt>
      <trkpt lat="47.74768" lon="-3.30564">
        <ele>64</ele>
        <time>2021-09-24T09:28:30.132Z</time>
      </trkpt>
      <trkpt lat="47.74778" lon="-3.30566">
        <ele>64</ele>
        <time>2021-09-24T09:28:34.142Z</time>
      </trkpt>
      <trkpt lat="47.74787" lon="-3.30568">
        <ele>63</ele>
        <time>2021-09-24T09:28:44.142Z</time>
      </trkpt>
      <trkpt lat="47.74797" lon="-3.30565">
        <ele>63</ele>
        <time>2021-09-24T09:28:50.134Z</time>
      </trkpt>
      <trkpt lat="47.74806" lon="-3.30562">
        <ele>61</ele>
        <time>2021-09-24T09:29:06.113Z</time>
      </trkpt>
      <trkpt lat="47.74816" lon="-3.30564">
        <ele>60</ele>
        <time>2021-09-24T09:29:12.133Z</time>
      </trkpt>
      <trkpt lat="47.74825" lon="-3.30564">
        <ele>59</ele>
        <time>2021-09-24T09:29:16.127Z</time>
      </trkpt>
      <trkpt lat="47.74835" lon="-3.30567">
        <ele>59</ele>
        <time>2021-09-24T09:29:20.116Z</time>
      </trkpt>
      <trkpt lat="47.74845" lon="-3.30571">
        <ele>58</ele>
        <time>2021-09-24T09:29:26.143Z</time>
      </trkpt>
      <trkpt lat="47.74853" lon="-3.30578">
        <ele>57</ele>
        <time>2021-09-24T09:29:31.154Z</time>
      </trkpt>
      <trkpt lat="47.7486" lon="-3.30586">
        <ele>56</ele>
        <time>2021-09-24T09:29:40.140Z</time>
      </trkpt>
      <trkpt lat="47.74868" lon="-3.30579">
        <ele>55</ele>
        <time>2021-09-24T09:29:47.149Z</time>
      </trkpt>
      <trkpt lat="47.74875" lon="-3.30569">
        <ele>55</ele>
        <time>2021-09-24T09:29:52.140Z</time>
      </trkpt>
      <trkpt lat="47.74882" lon="-3.3056">
        <ele>54</ele>
        <time>2021-09-24T09:30:01.148Z</time>
      </trkpt>
      <trkpt lat="47.74893" lon="-3.30559">
        <ele>53</ele>
        <time>2021-09-24T09:30:10.147Z</time>
      </trkpt>
      <trkpt lat="47.74903" lon="-3.30561">
        <ele>53</ele>
        <time>2021-09-24T09:30:19.129Z</time>
      </trkpt>
      <trkpt lat="47.74912" lon="-3.30559">
        <ele>54</ele>
        <time>2021-09-24T09:30:25.154Z</time>
      </trkpt>
      <trkpt lat="47.74921" lon="-3.30557">
        <ele>54</ele>
        <time>2021-09-24T09:30:33.138Z</time>
      </trkpt>
      <trkpt lat="47.74931" lon="-3.30558">
        <ele>55</ele>
        <time>2021-09-24T09:30:42.146Z</time>
      </trkpt>
      <trkpt lat="47.7494" lon="-3.30558">
        <ele>56</ele>
        <time>2021-09-24T09:30:51.160Z</time>
      </trkpt>
      <trkpt lat="47.74949" lon="-3.30554">
        <ele>57</ele>
        <time>2021-09-24T09:30:58.119Z</time>
      </trkpt>
      <trkpt lat="47.74957" lon="-3.30562">
        <ele>58</ele>
        <time>2021-09-24T09:31:08.142Z</time>
      </trkpt>
      <trkpt lat="47.74966" lon="-3.30556">
        <ele>58</ele>
        <time>2021-09-24T09:31:18.156Z</time>
      </trkpt>
      <trkpt lat="47.74973" lon="-3.30545">
        <ele>59</ele>
        <time>2021-09-24T09:31:24.125Z</time>
      </trkpt>
      <trkpt lat="47.74979" lon="-3.30535">
        <ele>59</ele>
        <time>2021-09-24T09:31:31.164Z</time>
      </trkpt>
      <trkpt lat="47.74986" lon="-3.30527">
        <ele>59</ele>
        <time>2021-09-24T09:31:40.136Z</time>
      </trkpt>
      <trkpt lat="47.74995" lon="-3.30523">
        <ele>60</ele>
        <time>2021-09-24T09:31:49.144Z</time>
      </trkpt>
      <trkpt lat="47.75005" lon="-3.30518">
        <ele>60</ele>
        <time>2021-09-24T09:31:56.155Z</time>
      </trkpt>
      <trkpt lat="47.75014" lon="-3.30512">
        <ele>60</ele>
        <time>2021-09-24T09:32:02.136Z</time>
      </trkpt>
      <trkpt lat="47.75022" lon="-3.30505">
        <ele>61</ele>
        <time>2021-09-24T09:32:09.137Z</time>
      </trkpt>
      <trkpt lat="47.75032" lon="-3.30502">
        <ele>61</ele>
        <time>2021-09-24T09:32:17.150Z</time>
      </trkpt>
      <trkpt lat="47.75041" lon="-3.30496">
        <ele>62</ele>
        <time>2021-09-24T09:32:25.125Z</time>
      </trkpt>
      <trkpt lat="47.75048" lon="-3.30486">
        <ele>63</ele>
        <time>2021-09-24T09:32:34.128Z</time>
      </trkpt>
      <trkpt lat="47.75058" lon="-3.30481">
        <ele>64</ele>
        <time>2021-09-24T09:32:45.141Z</time>
      </trkpt>
      <trkpt lat="47.75066" lon="-3.30473">
        <ele>64</ele>
        <time>2021-09-24T09:32:52.126Z</time>
      </trkpt>
      <trkpt lat="47.75076" lon="-3.30471">
        <ele>64</ele>
        <time>2021-09-24T09:33:08.178Z</time>
      </trkpt>
      <trkpt lat="47.75085" lon="-3.30469">
        <ele>63</ele>
        <time>2021-09-24T09:33:14.138Z</time>
      </trkpt>
      <trkpt lat="47.75095" lon="-3.30465">
        <ele>63</ele>
        <time>2021-09-24T09:33:18.140Z</time>
      </trkpt>
      <trkpt lat="47.75104" lon="-3.30461">
        <ele>63</ele>
        <time>2021-09-24T09:33:25.154Z</time>
      </trkpt>
      <trkpt lat="47.75113" lon="-3.30458">
        <ele>63</ele>
        <time>2021-09-24T09:33:30.141Z</time>
      </trkpt>
      <trkpt lat="47.75122" lon="-3.30455">
        <ele>62</ele>
        <time>2021-09-24T09:33:36.134Z</time>
      </trkpt>
      <trkpt lat="47.75129" lon="-3.30447">
        <ele>62</ele>
        <time>2021-09-24T09:33:42.151Z</time>
      </trkpt>
      <trkpt lat="47.75136" lon="-3.30437">
        <ele>61</ele>
        <time>2021-09-24T09:33:51.143Z</time>
      </trkpt>
      <trkpt lat="47.75146" lon="-3.30436">
        <ele>60</ele>
        <time>2021-09-24T09:34:00.158Z</time>
      </trkpt>
      <trkpt lat="47.75154" lon="-3.30428">
        <ele>59</ele>
        <time>2021-09-24T09:34:09.148Z</time>
      </trkpt>
      <trkpt lat="47.75156" lon="-3.3043">
        <ele>59</ele>
        <time>2021-09-24T09:34:15.108Z</time>
      </trkpt>
      <trkpt lat="47.75156" lon="-3.3043">
        <ele>59</ele>
        <time>2021-09-24T09:34:30.113Z</time>
      </trkpt>
      <trkpt lat="47.7516" lon="-3.30431">
        <ele>58</ele>
        <time>2021-09-24T09:34:31.116Z</time>
      </trkpt>
      <trkpt lat="47.75169" lon="-3.3043">
        <ele>58</ele>
        <time>2021-09-24T09:34:40.119Z</time>
      </trkpt>
      <trkpt lat="47.75178" lon="-3.3043">
        <ele>58</ele>
        <time>2021-09-24T09:34:49.118Z</time>
      </trkpt>
      <trkpt lat="47.75189" lon="-3.30428">
        <ele>57</ele>
        <time>2021-09-24T09:34:56.144Z</time>
      </trkpt>
      <trkpt lat="47.75198" lon="-3.30427">
        <ele>57</ele>
        <time>2021-09-24T09:35:03.132Z</time>
      </trkpt>
      <trkpt lat="47.75207" lon="-3.30425">
        <ele>58</ele>
        <time>2021-09-24T09:35:11.129Z</time>
      </trkpt>
      <trkpt lat="47.75216" lon="-3.30421">
        <ele>58</ele>
        <time>2021-09-24T09:35:18.135Z</time>
      </trkpt>
      <trkpt lat="47.75225" lon="-3.30418">
        <ele>58</ele>
        <time>2021-09-24T09:35:25.143Z</time>
      </trkpt>
      <trkpt lat="47.75234" lon="-3.30415">
        <ele>58</ele>
        <time>2021-09-24T09:35:33.140Z</time>
      </trkpt>
      <trkpt lat="47.75243" lon="-3.30408">
        <ele>58</ele>
        <time>2021-09-24T09:35:42.129Z</time>
      </trkpt>
      <trkpt lat="47.75249" lon="-3.30398">
        <ele>58</ele>
        <time>2021-09-24T09:35:50.136Z</time>
      </trkpt>
      <trkpt lat="47.75258" lon="-3.30391">
        <ele>58</ele>
        <time>2021-09-24T09:35:58.145Z</time>
      </trkpt>
      <trkpt lat="47.75266" lon="-3.30396">
        <ele>58</ele>
        <time>2021-09-24T09:36:12.114Z</time>
      </trkpt>
      <trkpt lat="47.75269" lon="-3.3041">
        <ele>57</ele>
        <time>2021-09-24T09:36:20.136Z</time>
      </trkpt>
      <trkpt lat="47.75273" lon="-3.30424">
        <ele>57</ele>
        <time>2021-09-24T09:36:27.141Z</time>
      </trkpt>
      <trkpt lat="47.7528" lon="-3.30431">
        <ele>56</ele>
        <time>2021-09-24T09:36:38.141Z</time>
      </trkpt>
      <trkpt lat="47.75288" lon="-3.30441">
        <ele>54</ele>
        <time>2021-09-24T09:36:51.132Z</time>
      </trkpt>
      <trkpt lat="47.75297" lon="-3.30445">
        <ele>54</ele>
        <time>2021-09-24T09:36:59.133Z</time>
      </trkpt>
      <trkpt lat="47.75301" lon="-3.30446">
        <ele>53</ele>
        <time>2021-09-24T09:37:07.118Z</time>
      </trkpt>
      <trkpt lat="47.75301" lon="-3.30446">
        <ele>53</ele>
        <time>2021-09-24T09:37:56.073Z</time>
      </trkpt>
      <trkpt lat="47.75297" lon="-3.30444">
        <ele>53</ele>
        <time>2021-09-24T09:37:57.140Z</time>
      </trkpt>
      <trkpt lat="47.75288" lon="-3.30438">
        <ele>53</ele>
        <time>2021-09-24T09:38:03.121Z</time>
      </trkpt>
      <trkpt lat="47.75282" lon="-3.30428">
        <ele>52</ele>
        <time>2021-09-24T09:38:17.111Z</time>
      </trkpt>
      <trkpt lat="47.75284" lon="-3.30422">
        <ele>52</ele>
        <time>2021-09-24T09:38:31.110Z</time>
      </trkpt>
      <trkpt lat="47.75284" lon="-3.30422">
        <ele>52</ele>
        <time>2021-09-24T09:39:05.114Z</time>
      </trkpt>
      <trkpt lat="47.75288" lon="-3.30424">
        <ele>52</ele>
        <time>2021-09-24T09:39:06.130Z</time>
      </trkpt>
      <trkpt lat="47.75293" lon="-3.30426">
        <ele>52</ele>
        <time>2021-09-24T09:39:16.111Z</time>
      </trkpt>
      <trkpt lat="47.75293" lon="-3.30426">
        <ele>52</ele>
        <time>2021-09-24T09:39:41.157Z</time>
      </trkpt>
      <trkpt lat="47.75297" lon="-3.30427">
        <ele>52</ele>
        <time>2021-09-24T09:39:42.146Z</time>
      </trkpt>
      <trkpt lat="47.75306" lon="-3.30431">
        <ele>52</ele>
        <time>2021-09-24T09:39:50.142Z</time>
      </trkpt>
      <trkpt lat="47.75315" lon="-3.3043">
        <ele>52</ele>
        <time>2021-09-24T09:40:00.145Z</time>
      </trkpt>
      <trkpt lat="47.75324" lon="-3.30423">
        <ele>52</ele>
        <time>2021-09-24T09:40:08.156Z</time>
      </trkpt>
      <trkpt lat="47.75333" lon="-3.30426">
        <ele>52</ele>
        <time>2021-09-24T09:40:14.154Z</time>
      </trkpt>
      <trkpt lat="47.75342" lon="-3.30421">
        <ele>51</ele>
        <time>2021-09-24T09:40:21.133Z</time>
      </trkpt>
      <trkpt lat="47.75351" lon="-3.30416">
        <ele>51</ele>
        <time>2021-09-24T09:40:27.133Z</time>
      </trkpt>
      <trkpt lat="47.7536" lon="-3.30413">
        <ele>51</ele>
        <time>2021-09-24T09:40:33.146Z</time>
      </trkpt>
      <trkpt lat="47.75369" lon="-3.3041">
        <ele>51</ele>
        <time>2021-09-24T09:40:39.144Z</time>
      </trkpt>
      <trkpt lat="47.75378" lon="-3.30406">
        <ele>51</ele>
        <time>2021-09-24T09:40:47.139Z</time>
      </trkpt>
      <trkpt lat="47.75387" lon="-3.30403">
        <ele>52</ele>
        <time>2021-09-24T09:40:56.130Z</time>
      </trkpt>
      <trkpt lat="47.75394" lon="-3.30392">
        <ele>52</ele>
        <time>2021-09-24T09:41:03.160Z</time>
      </trkpt>
      <trkpt lat="47.75393" lon="-3.30379">
        <ele>52</ele>
        <time>2021-09-24T09:41:12.160Z</time>
      </trkpt>
      <trkpt lat="47.75391" lon="-3.30364">
        <ele>52</ele>
        <time>2021-09-24T09:41:20.139Z</time>
      </trkpt>
      <trkpt lat="47.75391" lon="-3.30349">
        <ele>52</ele>
        <time>2021-09-24T09:41:27.154Z</time>
      </trkpt>
      <trkpt lat="47.75391" lon="-3.30335">
        <ele>52</ele>
        <time>2021-09-24T09:41:34.145Z</time>
      </trkpt>
      <trkpt lat="47.7539" lon="-3.3032">
        <ele>52</ele>
        <time>2021-09-24T09:41:45.147Z</time>
      </trkpt>
      <trkpt lat="47.75389" lon="-3.30305">
        <ele>52</ele>
        <time>2021-09-24T09:41:51.155Z</time>
      </trkpt>
      <trkpt lat="47.75388" lon="-3.30292">
        <ele>52</ele>
        <time>2021-09-24T09:42:00.164Z</time>
      </trkpt>
      <trkpt lat="47.75391" lon="-3.30278">
        <ele>52</ele>
        <time>2021-09-24T09:42:12.149Z</time>
      </trkpt>
      <trkpt lat="47.75395" lon="-3.30264">
        <ele>52</ele>
        <time>2021-09-24T09:42:17.156Z</time>
      </trkpt>
      <trkpt lat="47.75401" lon="-3.30254">
        <ele>52</ele>
        <time>2021-09-24T09:42:28.136Z</time>
      </trkpt>
      <trkpt lat="47.75409" lon="-3.30246">
        <ele>52</ele>
        <time>2021-09-24T09:42:37.139Z</time>
      </trkpt>
      <trkpt lat="47.75415" lon="-3.30234">
        <ele>52</ele>
        <time>2021-09-24T09:42:47.141Z</time>
      </trkpt>
      <trkpt lat="47.75418" lon="-3.3022">
        <ele>52</ele>
        <time>2021-09-24T09:42:59.135Z</time>
      </trkpt>
      <trkpt lat="47.7542" lon="-3.30207">
        <ele>52</ele>
        <time>2021-09-24T09:43:06.162Z</time>
      </trkpt>
      <trkpt lat="47.75421" lon="-3.30194">
        <ele>52</ele>
        <time>2021-09-24T09:43:15.128Z</time>
      </trkpt>
      <trkpt lat="47.75422" lon="-3.3018">
        <ele>52</ele>
        <time>2021-09-24T09:43:22.135Z</time>
      </trkpt>
      <trkpt lat="47.75423" lon="-3.30167">
        <ele>52</ele>
        <time>2021-09-24T09:43:31.140Z</time>
      </trkpt>
      <trkpt lat="47.75425" lon="-3.30152">
        <ele>52</ele>
        <time>2021-09-24T09:43:37.147Z</time>
      </trkpt>
      <trkpt lat="47.75425" lon="-3.30138">
        <ele>52</ele>
        <time>2021-09-24T09:43:44.160Z</time>
      </trkpt>
      <trkpt lat="47.75427" lon="-3.30118">
        <ele>51</ele>
        <time>2021-09-24T09:43:56.142Z</time>
      </trkpt>
      <trkpt lat="47.75433" lon="-3.30107">
        <ele>52</ele>
        <time>2021-09-24T09:44:25.139Z</time>
      </trkpt>
      <trkpt lat="47.7544" lon="-3.30099">
        <ele>52</ele>
        <time>2021-09-24T09:44:37.091Z</time>
      </trkpt>
      <trkpt lat="47.75449" lon="-3.30091">
        <ele>52</ele>
        <time>2021-09-24T09:44:39.135Z</time>
      </trkpt>
      <trkpt lat="47.75458" lon="-3.30084">
        <ele>53</ele>
        <time>2021-09-24T09:44:41.157Z</time>
      </trkpt>
      <trkpt lat="47.75467" lon="-3.30078">
        <ele>53</ele>
        <time>2021-09-24T09:44:43.149Z</time>
      </trkpt>
      <trkpt lat="47.75476" lon="-3.30071">
        <ele>53</ele>
        <time>2021-09-24T09:44:48.146Z</time>
      </trkpt>
      <trkpt lat="47.75485" lon="-3.30065">
        <ele>53</ele>
        <time>2021-09-24T09:44:53.143Z</time>
      </trkpt>
      <trkpt lat="47.75493" lon="-3.30057">
        <ele>53</ele>
        <time>2021-09-24T09:45:02.141Z</time>
      </trkpt>
      <trkpt lat="47.755" lon="-3.30049">
        <ele>53</ele>
        <time>2021-09-24T09:45:09.158Z</time>
      </trkpt>
      <trkpt lat="47.75508" lon="-3.30041">
        <ele>53</ele>
        <time>2021-09-24T09:45:14.161Z</time>
      </trkpt>
      <trkpt lat="47.75517" lon="-3.30037">
        <ele>53</ele>
        <time>2021-09-24T09:45:32.145Z</time>
      </trkpt>
      <trkpt lat="47.75525" lon="-3.30047">
        <ele>53</ele>
        <time>2021-09-24T09:45:38.143Z</time>
      </trkpt>
      <trkpt lat="47.75534" lon="-3.30054">
        <ele>54</ele>
        <time>2021-09-24T09:45:46.156Z</time>
      </trkpt>
      <trkpt lat="47.75543" lon="-3.30056">
        <ele>55</ele>
        <time>2021-09-24T09:45:58.132Z</time>
      </trkpt>
      <trkpt lat="47.7555" lon="-3.30065">
        <ele>55</ele>
        <time>2021-09-24T09:46:06.135Z</time>
      </trkpt>
      <trkpt lat="47.75558" lon="-3.3007">
        <ele>55</ele>
        <time>2021-09-24T09:46:15.129Z</time>
      </trkpt>
      <trkpt lat="47.75568" lon="-3.30075">
        <ele>55</ele>
        <time>2021-09-24T09:46:20.125Z</time>
      </trkpt>
      <trkpt lat="47.75575" lon="-3.30083">
        <ele>55</ele>
        <time>2021-09-24T09:46:28.137Z</time>
      </trkpt>
      <trkpt lat="47.75583" lon="-3.30093">
        <ele>54</ele>
        <time>2021-09-24T09:46:37.144Z</time>
      </trkpt>
      <trkpt lat="47.75588" lon="-3.30104">
        <ele>53</ele>
        <time>2021-09-24T09:46:44.148Z</time>
      </trkpt>
      <trkpt lat="47.75595" lon="-3.30115">
        <ele>53</ele>
        <time>2021-09-24T09:46:52.154Z</time>
      </trkpt>
      <trkpt lat="47.75597" lon="-3.30114">
        <ele>52</ele>
        <time>2021-09-24T09:47:00.108Z</time>
      </trkpt>
      <trkpt lat="47.75597" lon="-3.30114">
        <ele>52</ele>
        <time>2021-09-24T09:47:14.117Z</time>
      </trkpt>
      <trkpt lat="47.75599" lon="-3.30119">
        <ele>52</ele>
        <time>2021-09-24T09:47:15.125Z</time>
      </trkpt>
      <trkpt lat="47.75606" lon="-3.3013">
        <ele>52</ele>
        <time>2021-09-24T09:47:24.131Z</time>
      </trkpt>
      <trkpt lat="47.75613" lon="-3.3014">
        <ele>52</ele>
        <time>2021-09-24T09:47:30.126Z</time>
      </trkpt>
      <trkpt lat="47.7562" lon="-3.30149">
        <ele>52</ele>
        <time>2021-09-24T09:47:38.122Z</time>
      </trkpt>
      <trkpt lat="47.75626" lon="-3.30162">
        <ele>52</ele>
        <time>2021-09-24T09:47:45.149Z</time>
      </trkpt>
      <trkpt lat="47.75631" lon="-3.30173">
        <ele>52</ele>
        <time>2021-09-24T09:47:52.116Z</time>
      </trkpt>
      <trkpt lat="47.75638" lon="-3.30183">
        <ele>52</ele>
        <time>2021-09-24T09:48:00.118Z</time>
      </trkpt>
      <trkpt lat="47.75644" lon="-3.30193">
        <ele>52</ele>
        <time>2021-09-24T09:48:08.133Z</time>
      </trkpt>
      <trkpt lat="47.75652" lon="-3.30203">
        <ele>52</ele>
        <time>2021-09-24T09:48:20.133Z</time>
      </trkpt>
      <trkpt lat="47.75658" lon="-3.30213">
        <ele>51</ele>
        <time>2021-09-24T09:48:37.132Z</time>
      </trkpt>
      <trkpt lat="47.75662" lon="-3.30226">
        <ele>52</ele>
        <time>2021-09-24T09:48:46.113Z</time>
      </trkpt>
      <trkpt lat="47.75669" lon="-3.30233">
        <ele>52</ele>
        <time>2021-09-24T09:48:54.127Z</time>
      </trkpt>
      <trkpt lat="47.75676" lon="-3.30244">
        <ele>52</ele>
        <time>2021-09-24T09:49:04.107Z</time>
      </trkpt>
      <trkpt lat="47.75684" lon="-3.30252">
        <ele>52</ele>
        <time>2021-09-24T09:49:13.103Z</time>
      </trkpt>
      <trkpt lat="47.75685" lon="-3.30252">
        <ele>52</ele>
        <time>2021-09-24T09:49:18.126Z</time>
      </trkpt>
      <trkpt lat="47.75685" lon="-3.30252">
        <ele>52</ele>
        <time>2021-09-24T09:50:00.132Z</time>
      </trkpt>
      <trkpt lat="47.75689" lon="-3.30251">
        <ele>53</ele>
        <time>2021-09-24T09:50:01.130Z</time>
      </trkpt>
      <trkpt lat="47.75699" lon="-3.30247">
        <ele>53</ele>
        <time>2021-09-24T09:50:09.149Z</time>
      </trkpt>
      <trkpt lat="47.75709" lon="-3.30245">
        <ele>53</ele>
        <time>2021-09-24T09:50:18.147Z</time>
      </trkpt>
      <trkpt lat="47.75719" lon="-3.3024">
        <ele>53</ele>
        <time>2021-09-24T09:50:25.154Z</time>
      </trkpt>
      <trkpt lat="47.75728" lon="-3.30237">
        <ele>52</ele>
        <time>2021-09-24T09:50:32.153Z</time>
      </trkpt>
      <trkpt lat="47.75737" lon="-3.30233">
        <ele>52</ele>
        <time>2021-09-24T09:50:39.134Z</time>
      </trkpt>
      <trkpt lat="47.75746" lon="-3.3023">
        <ele>52</ele>
        <time>2021-09-24T09:50:51.135Z</time>
      </trkpt>
      <trkpt lat="47.75755" lon="-3.30225">
        <ele>52</ele>
        <time>2021-09-24T09:51:00.146Z</time>
      </trkpt>
      <trkpt lat="47.75764" lon="-3.30219">
        <ele>52</ele>
        <time>2021-09-24T09:51:08.173Z</time>
      </trkpt>
      <trkpt lat="47.75772" lon="-3.3021">
        <ele>52</ele>
        <time>2021-09-24T09:51:15.141Z</time>
      </trkpt>
      <trkpt lat="47.75778" lon="-3.30198">
        <ele>52</ele>
        <time>2021-09-24T09:51:21.151Z</time>
      </trkpt>
      <trkpt lat="47.75785" lon="-3.30187">
        <ele>52</ele>
        <time>2021-09-24T09:51:27.129Z</time>
      </trkpt>
      <trkpt lat="47.7579" lon="-3.30176">
        <ele>52</ele>
        <time>2021-09-24T09:51:37.149Z</time>
      </trkpt>
      <trkpt lat="47.75791" lon="-3.30162">
        <ele>52</ele>
        <time>2021-09-24T09:51:45.149Z</time>
      </trkpt>
      <trkpt lat="47.75792" lon="-3.30146">
        <ele>53</ele>
        <time>2021-09-24T09:51:54.122Z</time>
      </trkpt>
      <trkpt lat="47.7579" lon="-3.30133">
        <ele>53</ele>
        <time>2021-09-24T09:52:00.143Z</time>
      </trkpt>
      <trkpt lat="47.75791" lon="-3.30119">
        <ele>54</ele>
        <time>2021-09-24T09:52:08.143Z</time>
      </trkpt>
      <trkpt lat="47.75792" lon="-3.30105">
        <ele>54</ele>
        <time>2021-09-24T09:52:17.116Z</time>
      </trkpt>
      <trkpt lat="47.75792" lon="-3.30091">
        <ele>55</ele>
        <time>2021-09-24T09:52:28.149Z</time>
      </trkpt>
      <trkpt lat="47.75794" lon="-3.30077">
        <ele>56</ele>
        <time>2021-09-24T09:52:35.144Z</time>
      </trkpt>
      <trkpt lat="47.75803" lon="-3.30079">
        <ele>59</ele>
        <time>2021-09-24T09:52:56.141Z</time>
      </trkpt>
      <trkpt lat="47.75812" lon="-3.30083">
        <ele>60</ele>
        <time>2021-09-24T09:52:59.146Z</time>
      </trkpt>
      <trkpt lat="47.75821" lon="-3.30085">
        <ele>60</ele>
        <time>2021-09-24T09:53:05.147Z</time>
      </trkpt>
      <trkpt lat="47.7583" lon="-3.30083">
        <ele>61</ele>
        <time>2021-09-24T09:53:15.151Z</time>
      </trkpt>
      <trkpt lat="47.75836" lon="-3.30073">
        <ele>61</ele>
        <time>2021-09-24T09:53:28.148Z</time>
      </trkpt>
      <trkpt lat="47.75841" lon="-3.30061">
        <ele>61</ele>
        <time>2021-09-24T09:53:35.141Z</time>
      </trkpt>
      <trkpt lat="47.75845" lon="-3.30047">
        <ele>61</ele>
        <time>2021-09-24T09:53:42.141Z</time>
      </trkpt>
      <trkpt lat="47.7585" lon="-3.30035">
        <ele>61</ele>
        <time>2021-09-24T09:53:48.124Z</time>
      </trkpt>
      <trkpt lat="47.75854" lon="-3.30021">
        <ele>62</ele>
        <time>2021-09-24T09:53:57.131Z</time>
      </trkpt>
      <trkpt lat="47.75857" lon="-3.30007">
        <ele>62</ele>
        <time>2021-09-24T09:54:07.144Z</time>
      </trkpt>
      <trkpt lat="47.75859" lon="-3.29993">
        <ele>63</ele>
        <time>2021-09-24T09:54:15.157Z</time>
      </trkpt>
      <trkpt lat="47.75862" lon="-3.2998">
        <ele>63</ele>
        <time>2021-09-24T09:54:23.151Z</time>
      </trkpt>
      <trkpt lat="47.75863" lon="-3.29966">
        <ele>64</ele>
        <time>2021-09-24T09:54:31.132Z</time>
      </trkpt>
      <trkpt lat="47.75867" lon="-3.29953">
        <ele>64</ele>
        <time>2021-09-24T09:54:39.126Z</time>
      </trkpt>
      <trkpt lat="47.75871" lon="-3.2994">
        <ele>64</ele>
        <time>2021-09-24T09:54:47.155Z</time>
      </trkpt>
      <trkpt lat="47.75874" lon="-3.29926">
        <ele>64</ele>
        <time>2021-09-24T09:54:54.153Z</time>
      </trkpt>
      <trkpt lat="47.75878" lon="-3.29913">
        <ele>65</ele>
        <time>2021-09-24T09:55:01.142Z</time>
      </trkpt>
      <trkpt lat="47.75881" lon="-3.29899">
        <ele>66</ele>
        <time>2021-09-24T09:55:09.151Z</time>
      </trkpt>
      <trkpt lat="47.75882" lon="-3.29885">
        <ele>66</ele>
        <time>2021-09-24T09:55:17.156Z</time>
      </trkpt>
      <trkpt lat="47.75885" lon="-3.29871">
        <ele>67</ele>
        <time>2021-09-24T09:55:26.161Z</time>
      </trkpt>
      <trkpt lat="47.75889" lon="-3.29858">
        <ele>69</ele>
        <time>2021-09-24T09:55:34.159Z</time>
      </trkpt>
      <trkpt lat="47.75892" lon="-3.29844">
        <ele>70</ele>
        <time>2021-09-24T09:55:42.156Z</time>
      </trkpt>
      <trkpt lat="47.75895" lon="-3.2983">
        <ele>71</ele>
        <time>2021-09-24T09:55:50.145Z</time>
      </trkpt>
      <trkpt lat="47.75899" lon="-3.29817">
        <ele>72</ele>
        <time>2021-09-24T09:55:58.148Z</time>
      </trkpt>
      <trkpt lat="47.75901" lon="-3.29804">
        <ele>73</ele>
        <time>2021-09-24T09:56:06.127Z</time>
      </trkpt>
      <trkpt lat="47.75903" lon="-3.2979">
        <ele>74</ele>
        <time>2021-09-24T09:56:14.138Z</time>
      </trkpt>
      <trkpt lat="47.75907" lon="-3.29778">
        <ele>75</ele>
        <time>2021-09-24T09:56:22.152Z</time>
      </trkpt>
      <trkpt lat="47.75909" lon="-3.29764">
        <ele>76</ele>
        <time>2021-09-24T09:56:30.133Z</time>
      </trkpt>
      <trkpt lat="47.75907" lon="-3.29765">
        <ele>77</ele>
        <time>2021-09-24T09:56:41.131Z</time>
      </trkpt>
      <trkpt lat="47.75907" lon="-3.29765">
        <ele>77</ele>
        <time>2021-09-24T09:57:19.126Z</time>
      </trkpt>
      <trkpt lat="47.75909" lon="-3.2976">
        <ele>78</ele>
        <time>2021-09-24T09:57:20.119Z</time>
      </trkpt>
    </trkseg>
  </trk>
</gpx>